Flight Number: EUR2429 Duration: 6:00
Departure: Casablanca Int'l (GMMN) at 06:00 Distance: 2562 Nm
Arrival: Jeddah King Abdul Aziz (OEJN) at 12:00 Equipment: B757-200

Weather Information
Nouasseur, Morocco (GMMN) 33-22N 007-35W 206M May 22, 2018 - 03:00 PM EDT / 2018.05.22 1900 UTC
Wind: from the NNW (340 degrees) at 13 MPH (11 KT):0
Visibility: greater than 7 mile(s):0
Sky conditions: mostly cloudy Temperature: 64 F (18 C) Dew Point: 57 F (14 C) Relative Humidity: 77% Pressure (altimeter): 29.97 in. Hg (1015 hPa)
ob: GMMN 221900Z 34011KT 9999 BKN016 18/14 Q1015 NOSIG cycle: 19
Sunrise: 05:28 Sunset: 19:25 (UTC)

Jeddah King Abdul Aziz International Airport , Saudi Arabia (OEJN) 21-42N 039-11E 17M May 22, 2018 - 03:00 PM EDT / 2018.05.22 1900 UTC
Wind: from the N (350 degrees) at 7 MPH (6 KT):0
Visibility: greater than 7 mile(s):0
Sky conditions: mostly clear Temperature: 91 F (33 C) Dew Point: 60 F (16 C) Relative Humidity: 36% Pressure (altimeter): 29.77 in. Hg (1008 hPa)
ob: OEJN 221900Z 35006KT 9999 FEW040 33/16 Q1008 NOSIG cycle: 19
Sunrise: 02:44 Sunset: 15:55 (UTC)

TAF:2018/05/22 18:03 TAF OEJN 221700Z 2218/2324 36008KT 7000 FEW040 BECMG 2307/2309 30014KT

This route has never been flown.

Route map